Time;durP1;ratioP1;P1;durP2;ratioP2;P2;SDS_P1;SDS_P2;PMS_P1;PMS_P2;Temp;Humidity;BMP_temperature;BMP_pressure;BME280_temperature;BME280_humidity;BME280_pressure;Samples;Min_cycle;Max_cycle;Signal;HPM_P1;HPM_P2
2022/05/23 03:34:45;;;;;;;;;;;;;;;10.43;100.00;98668.75;6186009;23;20302;-86
2022/05/23 03:37:12;;;;;;;;;;;;;;;10.42;100.00;98647.66;6186382;23;19956;-87
2022/05/23 03:46:13;;;;;;;;;;;;;;;10.43;100.00;98622.88;6174329;23;19912;-86
2022/05/23 03:48:38;;;;;;;;;;;;;;;10.40;100.00;98578.91;6186162;23;20354;-85
2022/05/23 03:51:18;;;;;;;;;;;;;;;10.42;100.00;98518.78;6159566;23;19912;-84
2022/05/23 04:01:56;;;;;;;;;;;;;;;10.46;100.00;98381.72;6216514;22;19931;-88
2022/05/23 04:07:36;;;;;;;;;;;;;;;10.42;100.00;98385.50;6125126;23;19917;-88
2022/05/23 04:13:23;;;;;;;;;;;;;;;10.41;100.00;98387.31;6123892;23;20260;-88
2022/05/23 04:16:27;;;;;;;;;;;;;;;10.40;100.00;98382.13;6123824;23;20368;-88
2022/05/23 04:19:04;;;;;;;;;;;;;;;10.35;100.00;98396.53;6007768;23;19978;-87
2022/05/23 04:21:32;;;;;;;;;;;;;;;10.45;100.00;98396.78;6086656;23;19913;-88
2022/05/23 04:24:14;;;;;;;;;;;;;;;;;;;;;
2022/05/23 04:26:40;;;;;;;;;;;;;;;10.50;100.00;98372.66;6216212;23;19983;-87
2022/05/23 04:29:08;;;;;;;;;;;;;;;10.40;100.00;98366.22;6215850;23;20011;-86
2022/05/23 04:31:37;;;;;;;;;;;;;;;10.39;100.00;98353.94;6214016;23;20442;-86
2022/05/23 04:36:48;;;;;;;;;;;;;;;10.42;100.00;98349.31;6215722;23;20259;-87
2022/05/23 04:39:13;;;;;;;;;;;;;;;10.43;100.00;98342.19;6215836;23;19940;-87
2022/05/23 04:41:40;;;;;;;;;;;;;;;10.28;100.00;98336.91;6215797;23;19915;-87
2022/05/23 04:44:07;;;;;;;;;;;;;;;10.35;100.00;98330.31;6216033;23;20015;-87
2022/05/23 04:46:35;;;;;;;;;;;;;;;10.32;100.00;98340.22;6214232;23;20087;-87
2022/05/23 04:51:44;;;;;;;;;;;;;;;10.43;100.00;98344.84;6215443;23;19974;-86
2022/05/23 04:54:09;;;;;;;;;;;;;;;10.40;100.00;98345.88;6189344;23;20312;-86
2022/05/23 04:56:37;;;;;;;;;;;;;;;10.43;100.00;98358.09;6215904;23;19947;-86
2022/05/23 04:59:02;;;;;;;;;;;;;;;10.45;100.00;98377.38;6215699;23;20392;-86
2022/05/23 07:45:01;;;;;;;;;;;;;;;12.70;100.00;98444.22;6205987;22;20381;-85
2022/05/23 07:47:26;;;;;;;;;;;;;;;14.22;100.00;98436.38;6215029;23;19920;-85
2022/05/23 07:49:52;;;;;;;;;;;;;;;13.96;100.00;98426.78;6214190;23;19958;-87
2022/05/23 07:52:17;;;;;;;;;;;;;;;13.04;100.00;98428.47;6189272;23;19947;-88
2022/05/23 08:02:54;;;;;;;;;;;;;;;12.53;100.00;98448.97;6216182;23;19919;-88
2022/05/23 08:05:19;;;;;;;;;;;;;;;12.57;100.00;98441.63;6215522;23;19916;-88
2022/05/23 08:07:44;;;;;;;;;;;;;;;12.02;100.00;98442.91;6188735;23;19912;-88
2022/05/23 08:10:10;;;;;;;;;;;;;;;11.79;100.00;98440.00;6215504;23;19912;-89
2022/05/23 08:12:38;;;;;;;;;;;;;;;11.66;100.00;98434.69;6188933;23;19982;-90
2022/05/23 08:15:04;;;;;;;;;;;;;;;11.96;100.00;98425.59;6214307;23;19962;-87
2022/05/23 08:17:30;;;;;;;;;;;;;;;12.40;100.00;98432.22;6215997;23;19947;-88
2022/05/23 08:19:55;;;;;;;;;;;;;;;12.24;100.00;98431.59;6213846;23;19919;-88
2022/05/23 08:22:22;;;;;;;;;;;;;;;12.10;100.00;98436.09;6189822;23;19911;-89
2022/05/23 08:24:47;;;;;;;;;;;;;;;12.45;100.00;98439.88;6188941;23;19962;-88
2022/05/23 08:27:16;;;;;;;;;;;;;;;12.29;100.00;98424.19;6189873;23;19919;-91
2022/05/23 08:29:41;;;;;;;;;;;;;;;12.00;100.00;98424.44;6213835;23;20336;-89
2022/05/23 08:32:14;;;;;;;;;;;;;;;12.32;100.00;98434.59;6215357;23;19991;-88
2022/05/23 08:34:41;;;;;;;;;;;;;;;12.25;100.00;98428.00;6215606;23;19965;-88
2022/05/23 08:37:07;;;;;;;;;;;;;;;11.97;100.00;98414.03;6189435;23;19919;-88
2022/05/23 08:39:32;;;;;;;;;;;;;;;12.43;100.00;98405.44;6214881;23;19916;-88
2022/05/23 08:42:05;;;;;;;;;;;;;;;12.50;100.00;98406.69;6215943;23;20302;-89
2022/05/23 08:44:39;;;;;;;;;;;;;;;12.15;100.00;98412.72;6214477;23;19922;-88
2022/05/23 08:50:45;;;;;;;;;;;;;;;12.34;100.00;98416.72;6202029;23;19962;-94
2022/05/23 08:53:39;;;;;;;;;;;;;;;12.22;100.00;98410.50;6213119;23;19912;-94
2022/05/23 08:59:02;;;;;;;;;;;;;;;12.15;100.00;98417.19;6213674;23;19919;-93
2022/05/23 09:01:54;;;;;;;;;;;;;;;;;;;;;
2022/05/23 09:04:38;;;;;;;;;;;;;;;;;;;;;
2022/05/23 09:07:31;;;;;;;;;;;;;;;;;;;;;
2022/05/23 09:16:16;;;;;;;;;;;;;;;;;;;;;
2022/05/23 09:22:48;;;;;;;;;;;;;;;;;;;;;
2022/05/23 09:25:43;;;;;;;;;;;;;;;12.66;100.00;98286.00;6215482;23;20655;-93
2022/05/23 09:28:51;;;;;;;;;;;;;;;;;;;;;
2022/05/23 09:31:30;;;;;;;;;;;;;;;12.45;100.00;98278.66;6214777;23;19991;-92
2022/05/23 09:40:08;;;;;;;;;;;;;;;;;;;;;
2022/05/23 09:48:15;;;;;;;;;;;;;;;12.89;100.00;98245.22;6222992;23;19982;-96
2022/05/23 09:50:42;;;;;;;;;;;;;;;13.05;100.00;98254.66;6219165;23;19912;-93
2022/05/23 09:53:24;;;;;;;;;;;;;;;12.52;100.00;98266.63;6217344;23;19912;-92
2022/05/23 09:55:49;;;;;;;;;;;;;;;12.98;100.00;98274.72;6213742;23;19923;-92
2022/05/23 09:58:22;;;;;;;;;;;;;;;12.78;100.00;98293.03;6213036;23;19912;-91
2022/05/23 10:00:56;;;;;;;;;;;;;;;12.60;100.00;98300.56;6213522;23;19919;-93
2022/05/23 10:03:22;;;;;;;;;;;;;;;12.92;100.00;98309.75;6215503;23;19986;-90
2022/05/23 10:06:00;;;;;;;;;;;;;;;12.76;100.00;98324.19;6188759;23;19916;-90
2022/05/23 10:08:34;;;;;;;;;;;;;;;12.63;100.00;98323.41;6213388;23;19912;-90
2022/05/23 10:11:16;;;;;;;;;;;;;;;12.85;100.00;98327.97;6213238;23;19912;-90
2022/05/23 10:13:42;;;;;;;;;;;;;;;12.52;100.00;98335.72;6211376;23;19935;-90
2022/05/23 10:16:08;;;;;;;;;;;;;;;12.73;100.00;98337.69;6187414;23;20346;-89
2022/05/23 10:18:36;;;;;;;;;;;;;;;12.99;100.00;98332.25;6214587;23;19944;-92
2022/05/23 10:21:17;;;;;;;;;;;;;;;12.57;100.00;98343.31;6188350;23;19916;-90
2022/05/23 10:23:57;;;;;;;;;;;;;;;12.86;100.00;98327.88;6214932;23;19937;-89
2022/05/23 10:26:24;;;;;;;;;;;;;;;12.93;100.00;98314.94;6214786;23;19995;-89
2022/05/23 10:29:08;;;;;;;;;;;;;;;12.54;100.00;98315.19;6186588;23;19916;-90
2022/05/23 10:31:33;;;;;;;;;;;;;;;12.88;100.00;98307.31;6213002;23;19919;-90
2022/05/23 10:34:02;;;;;;;;;;;;;;;12.77;100.00;98298.47;6213242;23;20601;-89
2022/05/23 10:36:30;;;;;;;;;;;;;;;12.82;100.00;98286.53;6188130;23;19966;-90
2022/05/23 10:42:08;;;;;;;;;;;;;;;12.63;100.00;98286.22;6214596;23;20228;-90
2022/05/23 10:44:48;;;;;;;;;;;;;;;12.98;100.00;98296.84;6185813;23;19922;-89
2022/05/23 10:47:41;;;;;;;;;;;;;;;12.93;100.00;98301.66;6213647;23;19919;-89
2022/05/23 10:50:06;;;;;;;;;;;;;;;12.84;100.00;98297.91;6214618;23;20291;-90
2022/05/23 10:52:50;;;;;;;;;;;;;;;13.10;100.00;98308.34;6211671;23;19916;-89
2022/05/23 10:55:18;;;;;;;;;;;;;;;12.74;100.00;98296.06;6214100;23;19916;-92
2022/05/23 10:57:44;;;;;;;;;;;;;;;12.95;100.00;98274.97;6214327;23;19916;-90
2022/05/23 11:00:18;;;;;;;;;;;;;;;13.13;100.00;98280.66;6211353;23;20000;-91
2022/05/23 11:02:51;;;;;;;;;;;;;;;12.64;100.00;98275.47;6212799;23;20272;-89
2022/05/23 11:05:26;;;;;;;;;;;;;;;12.97;100.00;98286.31;6213802;23;20328;-90
2022/05/23 11:07:52;;;;;;;;;;;;;;;12.94;100.00;98278.56;6188307;23;20324;-90
2022/05/23 11:10:35;;;;;;;;;;;;;;;12.79;100.00;98275.28;6212914;23;19943;-91
2022/05/23 11:13:19;;;;;;;;;;;;;;;13.24;100.00;98272.69;6214523;23;20271;-90
2022/05/23 11:16:01;;;;;;;;;;;;;;;12.75;100.00;98271.16;6214066;23;19919;-90
2022/05/23 11:18:32;;;;;;;;;;;;;;;12.98;100.00;98264.09;6213965;23;19912;-89
2022/05/23 11:21:01;;;;;;;;;;;;;;;13.11;100.00;98256.84;6212945;23;19940;-92
2022/05/23 11:23:32;;;;;;;;;;;;;;;12.81;100.00;98249.44;6214020;23;20323;-89
2022/05/23 11:26:16;;;;;;;;;;;;;;;13.18;100.00;98204.91;6214563;23;20342;-89
2022/05/23 11:34:23;;;;;;;;;;;;;;;13.31;100.00;98209.25;6216305;23;20334;-90
2022/05/23 11:37:42;;;;;;;;;;;;;;;13.01;100.00;98210.69;6189189;23;19912;-90
2022/05/23 11:40:04;;;;;;;;;;;;;;;13.19;100.00;98209.22;6215705;23;19918;-90
2022/05/23 11:42:31;;;;;;;;;;;;;;;12.93;100.00;98213.09;6214635;23;19912;-90
2022/05/23 11:44:58;;;;;;;;;;;;;;;13.04;100.00;98211.28;6214424;23;19961;-90
2022/05/23 11:47:30;;;;;;;;;;;;;;;13.29;100.00;98206.72;6216050;23;19916;-91
2022/05/23 11:50:02;;;;;;;;;;;;;;;12.81;100.00;98202.44;6216363;23;19912;-90
2022/05/23 11:53:06;;;;;;;;;;;;;;;;;;;;;
2022/05/23 11:55:50;;;;;;;;;;;;;;;13.05;100.00;98212.13;6180468;23;19987;-91
2022/05/23 11:58:22;;;;;;;;;;;;;;;12.89;100.00;98213.34;6213869;23;20585;-90
2022/05/23 12:01:14;;;;;;;;;;;;;;;13.21;100.00;98209.97;6215819;23;19916;-91
2022/05/23 12:03:52;;;;;;;;;;;;;;;12.80;100.00;98210.53;6210352;23;19912;-90
2022/05/23 12:06:23;;;;;;;;;;;;;;;13.11;100.00;98192.19;6216393;23;19915;-92
2022/05/23 12:09:00;;;;;;;;;;;;;;;12.93;100.00;98205.97;6216193;23;19938;-91
2022/05/23 12:11:33;;;;;;;;;;;;;;;12.95;100.00;98204.03;6215271;23;19916;-92
2022/05/23 12:14:17;;;;;;;;;;;;;;;13.21;100.00;98209.97;6214741;23;19927;-92
2022/05/23 12:16:55;;;;;;;;;;;;;;;12.90;100.00;98201.72;6216615;23;20235;-91
2022/05/23 12:19:39;;;;;;;;;;;;;;;13.23;100.00;98200.06;6215238;23;20240;-90
2022/05/23 12:22:28;;;;;;;;;;;;;;;13.05;100.00;98185.53;6214490;23;19915;-90
2022/05/23 12:24:58;;;;;;;;;;;;;;;13.18;100.00;98167.66;6159544;23;19912;-91
2022/05/23 12:27:28;;;;;;;;;;;;;;;13.38;100.00;98158.09;6213879;23;19912;-91
2022/05/23 12:30:12;;;;;;;;;;;;;;;13.02;100.00;98153.88;6213477;23;20232;-91
2022/05/23 12:32:47;;;;;;;;;;;;;;;13.32;100.00;98145.25;6214292;23;19915;-90
2022/05/23 12:35:14;;;;;;;;;;;;;;;13.12;100.00;98146.03;6215032;23;19956;-90
2022/05/23 12:38:00;;;;;;;;;;;;;;;13.14;100.00;98144.94;6214278;23;19919;-91
2022/05/23 12:40:30;;;;;;;;;;;;;;;13.51;100.00;98141.16;6215705;23;20376;-90
2022/05/23 12:43:23;;;;;;;;;;;;;;;12.90;100.00;98145.06;6214058;23;19912;-90
2022/05/23 12:45:57;;;;;;;;;;;;;;;13.40;100.00;98134.03;6213981;23;19995;-93
2022/05/23 12:48:23;;;;;;;;;;;;;;;13.06;100.00;98136.72;6216064;23;19923;-91
2022/05/23 12:50:58;;;;;;;;;;;;;;;13.19;100.00;98126.78;6215202;23;19916;-92
2022/05/23 12:53:24;;;;;;;;;;;;;;;13.53;100.00;98129.44;6215523;23;19912;-92
2022/05/23 12:56:15;;;;;;;;;;;;;;;13.04;100.00;98125.38;6214587;23;19923;-91
2022/05/23 12:58:45;;;;;;;;;;;;;;;13.26;100.00;98127.16;6216300;23;19919;-93
2022/05/23 13:01:30;;;;;;;;;;;;;;;13.02;100.00;98114.00;6213394;23;20213;-93
2022/05/23 13:04:05;;;;;;;;;;;;;;;13.12;100.00;98111.47;6214336;23;19919;-90
2022/05/23 13:06:36;;;;;;;;;;;;;;;13.43;100.00;98110.72;6187525;23;19981;-91
2022/05/23 13:09:35;;;;;;;;;;;;;;;13.16;100.00;98097.81;6214920;23;19979;-93
2022/05/23 13:12:06;;;;;;;;;;;;;;;13.40;100.00;98092.34;6214393;23;19919;-93
2022/05/23 13:14:50;;;;;;;;;;;;;;;13.09;100.00;98093.94;6214134;23;20355;-92
2022/05/23 13:17:27;;;;;;;;;;;;;;;13.22;100.00;98081.34;6213164;23;19923;-92
2022/05/23 13:22:37;;;;;;;;;;;;;;;12.99;100.00;98077.03;6213938;23;20011;-91
2022/05/23 13:25:15;;;;;;;;;;;;;;;;;;;;;
2022/05/23 13:28:10;;;;;;;;;;;;;;;12.94;100.00;98065.91;6214962;23;20002;-93
2022/05/23 13:30:41;;;;;;;;;;;;;;;13.30;100.00;98061.25;6211795;23;19912;-92
2022/05/23 13:33:06;;;;;;;;;;;;;;;13.11;100.00;98054.75;6214702;23;20320;-91
2022/05/23 13:35:31;;;;;;;;;;;;;;;13.00;100.00;98042.38;6215050;23;19927;-92
2022/05/23 13:38:13;;;;;;;;;;;;;;;13.40;100.00;98052.44;6188454;23;19908;-90
2022/05/23 13:40:42;;;;;;;;;;;;;;;12.79;100.00;98044.91;6187636;23;19948;-91
2022/05/23 13:43:20;;;;;;;;;;;;;;;13.22;100.00;98045.91;6214961;23;19982;-91
2022/05/23 13:45:53;;;;;;;;;;;;;;;13.08;100.00;98050.56;6213548;23;19920;-91
2022/05/23 13:48:46;;;;;;;;;;;;;;;12.97;100.00;98055.03;6188530;23;20331;-90
2022/05/23 13:51:14;;;;;;;;;;;;;;;13.31;100.00;98054.97;6183708;23;19911;-91
2022/05/23 13:53:49;;;;;;;;;;;;;;;12.80;100.00;98051.91;6214273;23;19993;-91
2022/05/23 13:56:14;;;;;;;;;;;;;;;13.22;100.00;98043.25;6214219;23;19919;-91
2022/05/23 13:58:45;;;;;;;;;;;;;;;13.08;100.00;98031.09;6213646;23;19916;-91
2022/05/23 14:01:21;;;;;;;;;;;;;;;13.02;100.00;98040.41;6214510;23;19966;-91
2022/05/23 14:03:50;;;;;;;;;;;;;;;13.33;100.00;98053.06;6214739;23;19912;-91
2022/05/23 14:06:22;;;;;;;;;;;;;;;12.80;100.00;98059.88;6214930;23;19943;-90
2022/05/23 14:08:54;;;;;;;;;;;;;;;13.16;100.00;98055.25;6188192;23;19919;-92
2022/05/23 14:11:23;;;;;;;;;;;;;;;13.10;100.00;98053.09;6188624;23;19942;-92
2022/05/23 14:13:54;;;;;;;;;;;;;;;13.04;100.00;98040.28;6212053;23;19912;-90
2022/05/23 14:16:20;;;;;;;;;;;;;;;13.45;100.00;98041.44;6187698;23;19919;-90
2022/05/23 14:18:59;;;;;;;;;;;;;;;12.80;100.00;98027.16;6213836;23;20350;-90
2022/05/23 14:21:39;;;;;;;;;;;;;;;13.06;100.00;98022.41;6214870;23;19931;-89
2022/05/23 14:24:23;;;;;;;;;;;;;;;13.02;100.00;98013.81;6212558;23;20418;-90
2022/05/23 14:27:14;;;;;;;;;;;;;;;13.05;100.00;98020.69;6213055;23;19987;-91
2022/05/23 14:29:41;;;;;;;;;;;;;;;13.27;100.00;97996.72;6151097;23;19959;-90
2022/05/23 14:32:13;;;;;;;;;;;;;;;12.90;100.00;97989.06;6212328;23;19959;-89
2022/05/23 14:34:38;;;;;;;;;;;;;;;13.22;100.00;97985.59;6187492;23;20284;-90
2022/05/23 14:37:07;;;;;;;;;;;;;;;12.97;100.00;98000.06;6213835;23;19911;-90
2022/05/23 14:39:34;;;;;;;;;;;;;;;13.14;100.00;97995.19;6213893;23;19920;-89
2022/05/23 14:42:20;;;;;;;;;;;;;;;13.34;100.00;98005.06;6187354;23;19943;-89
2022/05/23 14:45:01;;;;;;;;;;;;;;;13.03;100.00;97993.41;6213342;23;19919;-90
2022/05/23 14:47:29;;;;;;;;;;;;;;;13.23;100.00;98000.59;6211596;23;19986;-90
2022/05/23 14:50:00;;;;;;;;;;;;;;;12.90;100.00;98005.00;6187264;23;20301;-90
2022/05/23 14:52:45;;;;;;;;;;;;;;;13.20;100.00;97998.19;6211882;23;19959;-90
2022/05/23 14:55:21;;;;;;;;;;;;;;;13.38;100.00;97989.69;6211033;23;19935;-90
2022/05/23 15:00:39;;;;;;;;;;;;;;;13.55;100.00;97980.31;6211825;23;19923;-89
2022/05/23 15:03:12;;;;;;;;;;;;;;;13.10;100.00;97976.00;6212887;23;19934;-91
2022/05/23 15:05:39;;;;;;;;;;;;;;;13.38;100.00;97971.91;6214510;23;19912;-90
2022/05/23 15:11:32;;;;;;;;;;;;;;;13.78;100.00;97967.72;6041726;23;19955;-87
2022/05/23 15:14:11;;;;;;;;;;;;;;;13.66;100.00;97961.63;6209857;23;19932;-92
2022/05/23 15:16:37;;;;;;;;;;;;;;;13.43;100.00;97961.75;6212589;23;19915;-87
2022/05/23 15:19:03;;;;;;;;;;;;;;;13.43;100.00;97961.75;6186754;23;19920;-88
2022/05/23 15:21:28;;;;;;;;;;;;;;;12.98;100.00;97967.19;6187592;23;19994;-89
2022/05/23 15:23:54;;;;;;;;;;;;;;;13.57;100.00;97968.53;6186153;23;19944;-83
2022/05/23 15:26:29;;;;;;;;;;;;;;;14.88;100.00;97957.25;6212024;23;19916;-91
2022/05/23 15:28:55;;;;;;;;;;;;;;;13.72;100.00;97962.91;6185599;23;19912;-89
2022/05/23 15:31:22;;;;;;;;;;;;;;;14.44;100.00;97955.84;6182913;23;19985;-90
2022/05/23 15:33:47;;;;;;;;;;;;;;;13.51;100.00;97955.75;6211757;23;19930;-88
2022/05/23 15:36:15;;;;;;;;;;;;;;;13.42;100.00;97961.88;6187403;23;19920;-89
2022/05/23 15:38:43;;;;;;;;;;;;;;;13.08;100.00;97948.66;6212996;23;19919;-89
2022/05/23 15:41:12;;;;;;;;;;;;;;;13.18;100.00;97970.88;6212052;23;19916;-87
2022/05/23 15:43:40;;;;;;;;;;;;;;;13.25;100.00;97961.41;6185586;23;20284;-89
2022/05/23 15:46:08;;;;;;;;;;;;;;;12.38;100.00;97956.06;6212613;23;20016;-88
2022/05/23 15:48:34;;;;;;;;;;;;;;;12.93;100.00;97955.25;6213983;23;19922;-88
2022/05/23 15:51:04;;;;;;;;;;;;;;;12.97;100.00;97956.66;6212791;23;20312;-87
2022/05/23 15:53:32;;;;;;;;;;;;;;;12.10;100.00;97949.44;6186388;23;19919;-88
2022/05/23 15:55:59;;;;;;;;;;;;;;;12.75;100.00;97950.47;6213350;23;19912;-89
2022/05/23 15:58:25;;;;;;;;;;;;;;;12.82;100.00;97943.66;6185208;23;19970;-88
2022/05/23 16:00:53;;;;;;;;;;;;;;;12.25;100.00;97942.06;6212658;23;19912;-88
2022/05/23 16:03:42;;;;;;;;;;;;;;;12.79;100.00;97949.22;6213148;23;19970;-89
2022/05/23 16:06:15;;;;;;;;;;;;;;;12.38;100.00;97964.03;6212968;23;19912;-89
2022/05/23 16:08:53;;;;;;;;;;;;;;;;;;;;;
2022/05/23 16:11:45;;;;;;;;;;;;;;;12.70;100.00;97971.22;6214414;23;20402;-89
2022/05/23 16:14:21;;;;;;;;;;;;;;;11.93;100.00;97970.16;6134125;23;19946;-89
2022/05/23 16:16:54;;;;;;;;;;;;;;;12.52;100.00;97955.81;6121756;23;19944;-89
2022/05/23 16:19:25;;;;;;;;;;;;;;;12.44;100.00;97955.56;6098716;23;19913;-89
2022/05/23 16:22:43;;;;;;;;;;;;;;;12.39;100.00;97951.59;6098163;23;20425;-89
2022/05/23 16:40:35;;;;;;;;;;;;;;;12.72;100.00;98009.16;6007611;23;19997;-90
2022/05/23 16:46:05;;;;;;;;;;;;;;;12.95;100.00;98014.44;6071190;23;19928;-88
2022/05/23 16:48:32;;;;;;;;;;;;;;;11.73;100.00;98022.06;6108446;23;19917;-86
2022/05/23 16:51:00;;;;;;;;;;;;;;;12.18;100.00;98013.38;6188959;23;19923;-87
2022/05/23 16:53:27;;;;;;;;;;;;;;;12.28;100.00;98019.66;6188986;23;19919;-87
2022/05/23 16:55:53;;;;;;;;;;;;;;;11.51;100.00;98028.13;6215592;23;19923;-88
2022/05/23 16:58:21;;;;;;;;;;;;;;;11.42;100.00;98042.94;6214732;23;19916;-89
2022/05/23 17:00:54;;;;;;;;;;;;;;;11.45;100.00;98053.31;6215470;23;19912;-87
2022/05/23 17:03:26;;;;;;;;;;;;;;;11.39;100.00;98052.91;6215528;23;19912;-88
2022/05/23 17:06:01;;;;;;;;;;;;;;;11.69;100.00;98054.25;6216122;23;19912;-88
2022/05/23 17:11:43;;;;;;;;;;;;;;;11.51;100.00;98070.56;6162660;23;19924;-89
2022/05/23 17:14:10;;;;;;;;;;;;;;;11.31;100.00;98074.69;6181177;23;20420;-88
2022/05/23 17:17:04;;;;;;;;;;;;;;;11.34;100.00;98076.28;6182703;23;20244;-89
2022/05/23 17:20:07;;;;;;;;;;;;;;;11.70;100.00;98082.47;6182340;23;19920;-87
2022/05/23 17:22:40;;;;;;;;;;;;;;;11.95;100.00;98098.28;6181966;23;19951;-88
2022/05/23 17:25:07;;;;;;;;;;;;;;;11.35;100.00;98094.72;6182655;23;19913;-87
2022/05/23 17:27:43;;;;;;;;;;;;;;;11.80;100.00;98094.94;6182226;23;19916;-87
2022/05/23 17:30:21;;;;;;;;;;;;;;;;;;;;;
2022/05/23 17:33:06;;;;;;;;;;;;;;;11.41;100.00;98102.22;6195371;23;20152;-88
2022/05/23 17:35:40;;;;;;;;;;;;;;;11.88;100.00;98101.47;6188873;23;20235;-88
2022/05/23 17:38:15;;;;;;;;;;;;;;;12.09;100.00;98104.34;6216029;23;19912;-88
2022/05/23 17:40:59;;;;;;;;;;;;;;;;;;;;;
2022/05/23 17:43:29;;;;;;;;;;;;;;;12.08;100.00;98102.69;6213670;23;20295;-92
2022/05/23 17:46:12;;;;;;;;;;;;;;;;;;;;;
2022/05/23 17:52:10;;;;;;;;;;;;;;;12.23;100.00;98106.81;6036717;23;19946;-88
2022/05/23 17:54:44;;;;;;;;;;;;;;;11.76;100.00;98120.00;6214251;23;19916;-90
2022/05/23 18:00:07;;;;;;;;;;;;;;;12.51;100.00;98116.16;6166574;23;19912;-88
2022/05/23 18:02:33;;;;;;;;;;;;;;;11.66;100.00;98120.81;6215397;23;19926;-88
2022/05/23 18:05:25;;;;;;;;;;;;;;;12.24;100.00;98119.13;6215114;23;19958;-87
2022/05/23 18:07:51;;;;;;;;;;;;;;;12.28;100.00;98119.72;6214850;23;19966;-86
2022/05/23 18:10:17;;;;;;;;;;;;;;;11.70;100.00;98128.44;6214855;23;19966;-87
2022/05/23 18:12:47;;;;;;;;;;;;;;;12.24;100.00;98131.53;6188577;23;19926;-86
2022/05/23 18:20:46;;;;;;;;;;;;;;;12.39;100.00;98148.97;6214712;23;19970;-86
2022/05/23 18:23:21;;;;;;;;;;;;;;;;;;;;;
2022/05/23 18:25:49;;;;;;;;;;;;;;;11.86;100.00;98156.50;6214612;23;19998;-87
2022/05/23 18:28:14;;;;;;;;;;;;;;;12.50;100.00;98172.06;6212874;23;19962;-86
2022/05/23 18:30:40;;;;;;;;;;;;;;;12.56;100.00;98171.59;6186232;23;19916;-84
2022/05/23 18:33:08;;;;;;;;;;;;;;;12.02;100.00;98188.91;6214301;23;19999;-87
2022/05/23 18:35:33;;;;;;;;;;;;;;;12.45;100.00;98169.75;6215156;23;19922;-87
2022/05/23 18:37:59;;;;;;;;;;;;;;;12.72;100.00;98171.25;6214675;23;19951;-87
2022/05/23 18:40:30;;;;;;;;;;;;;;;12.14;100.00;98182.69;6187259;23;19915;-87
2022/05/23 18:43:15;;;;;;;;;;;;;;;12.28;100.00;98188.78;6213401;23;20011;-88
2022/05/23 18:45:40;;;;;;;;;;;;;;;12.68;100.00;98186.59;6210331;23;20405;-87
2022/05/23 18:50:52;;;;;;;;;;;;;;;12.19;100.00;98203.59;6213352;23;19942;-86
2022/05/23 18:53:20;;;;;;;;;;;;;;;12.58;100.00;98198.06;6213480;23;20283;-90
2022/05/23 18:55:53;;;;;;;;;;;;;;;12.54;100.00;98211.56;6186333;23;19920;-88
2022/05/23 18:58:20;;;;;;;;;;;;;;;11.95;100.00;98224.81;6186385;23;19916;-87
2022/05/23 19:00:49;;;;;;;;;;;;;;;11.76;100.00;98233.28;6210492;23;19925;-88
2022/05/23 19:03:24;;;;;;;;;;;;;;;11.80;100.00;98243.53;6187250;23;19991;-88
2022/05/23 19:05:52;;;;;;;;;;;;;;;11.88;100.00;98245.63;6213407;23;19990;-87
2022/05/23 19:08:18;;;;;;;;;;;;;;;12.53;100.00;98251.53;6213117;23;19920;-88
2022/05/23 19:10:50;;;;;;;;;;;;;;;12.55;100.00;98244.28;6211429;23;19911;-90
2022/05/23 19:13:29;;;;;;;;;;;;;;;11.99;100.00;98253.69;6211477;23;20308;-89
2022/05/23 19:15:54;;;;;;;;;;;;;;;12.59;100.00;98259.03;6186748;23;19991;-87
2022/05/23 19:18:22;;;;;;;;;;;;;;;12.66;100.00;98265.56;6212259;23;19954;-89
2022/05/23 19:20:47;;;;;;;;;;;;;;;12.07;100.00;98271.72;6213340;23;19916;-88
2022/05/23 19:23:12;;;;;;;;;;;;;;;11.93;100.00;98279.84;6213767;23;19974;-88
2022/05/23 19:25:38;;;;;;;;;;;;;;;11.90;100.00;98280.88;6213691;23;20382;-87
2022/05/23 19:28:04;;;;;;;;;;;;;;;11.82;100.00;98297.34;6213873;23;19911;-87
2022/05/23 19:30:30;;;;;;;;;;;;;;;12.38;100.00;98290.72;6212174;23;20237;-87
2022/05/23 19:32:55;;;;;;;;;;;;;;;12.67;100.00;98291.19;6213029;23;19912;-87
2022/05/23 19:35:21;;;;;;;;;;;;;;;11.99;100.00;98295.31;6213278;23;19916;-87
2022/05/23 19:37:48;;;;;;;;;;;;;;;12.28;100.00;98295.00;6212191;23;19912;-89
2022/05/23 19:40:14;;;;;;;;;;;;;;;12.64;100.00;98307.38;6212689;23;20351;-88
2022/05/23 19:42:42;;;;;;;;;;;;;;;12.28;100.00;98313.59;6211328;23;19916;-89
2022/05/23 19:45:08;;;;;;;;;;;;;;;11.94;100.00;98308.09;6185161;23;19912;-87
2022/05/23 19:47:33;;;;;;;;;;;;;;;11.73;100.00;98332.50;6214561;23;19937;-87
2022/05/23 19:49:59;;;;;;;;;;;;;;;11.78;100.00;98334.84;6188968;23;19962;-87
2022/05/23 19:52:24;;;;;;;;;;;;;;;11.72;100.00;98336.09;6187635;23;19916;-86
2022/05/23 19:54:50;;;;;;;;;;;;;;;11.75;100.00;98341.19;6188409;23;20322;-86
2022/05/23 19:57:16;;;;;;;;;;;;;;;11.84;100.00;98337.06;6215350;23;19919;-87
2022/05/23 19:59:41;;;;;;;;;;;;;;;12.28;100.00;98334.84;6186068;23;19912;-87
2022/05/23 20:07:36;;;;;;;;;;;;;;;11.73;100.00;98348.44;6215347;23;20366;-87
2022/05/23 20:10:03;;;;;;;;;;;;;;;11.70;100.00;98353.94;6214906;23;19920;-87
2022/05/23 20:12:29;;;;;;;;;;;;;;;11.52;100.00;98361.38;6187836;23;19919;-86
2022/05/23 20:20:47;;;;;;;;;;;;;;;11.60;100.00;98384.75;6197099;23;19916;-87
2022/05/23 20:23:25;;;;;;;;;;;;;;;11.59;100.00;98377.72;6188250;23;19927;-89
2022/05/23 20:35:38;;;;;;;;;;;;;;;11.38;100.00;98390.66;6035700;23;19918;-89
2022/05/23 20:38:04;;;;;;;;;;;;;;;11.42;100.00;98387.72;6035823;23;19917;-86
2022/05/23 20:40:52;;;;;;;;;;;;;;;11.48;100.00;98393.53;6035868;23;19953;-89
2022/05/23 20:43:22;;;;;;;;;;;;;;;11.40;100.00;98389.59;6020418;23;19959;-87
2022/05/23 20:46:17;;;;;;;;;;;;;;;;;;;;;
2022/05/23 20:49:19;;;;;;;;;;;;;;;;;;;;;
2022/05/23 20:55:23;;;;;;;;;;;;;;;;;;;;;
2022/05/23 20:57:49;;;;;;;;;;;;;;;11.36;100.00;98398.72;5951264;24;20001;-90
2022/05/23 21:06:52;;;;;;;;;;;;;;;11.43;100.00;98397.34;5980586;23;19915;-89
2022/05/23 21:09:50;;;;;;;;;;;;;;;;;;;;;
2022/05/23 21:12:47;;;;;;;;;;;;;;;;;;;;;
2022/05/23 21:15:04;;;;;;;;;;;;;;;11.36;100.00;98404.03;6097110;23;20217;-87
2022/05/23 21:17:32;;;;;;;;;;;;;;;11.36;100.00;98401.38;6214395;23;19990;-87
2022/05/23 21:19:59;;;;;;;;;;;;;;;11.32;100.00;98402.53;6214640;23;19916;-89
2022/05/23 21:25:54;;;;;;;;;;;;;;;;;;;;;
2022/05/23 21:28:53;;;;;;;;;;;;;;;11.41;100.00;98414.34;6199273;23;19994;-92
2022/05/23 21:31:26;;;;;;;;;;;;;;;11.35;100.00;98410.28;6214354;23;19916;-87
2022/05/23 21:33:54;;;;;;;;;;;;;;;11.26;100.00;98413.53;6187615;23;19919;-87
2022/05/23 21:36:29;;;;;;;;;;;;;;;11.31;100.00;98422.03;6214678;23;19958;-87
2022/05/23 21:38:59;;;;;;;;;;;;;;;11.24;100.00;98405.69;6187451;23;19912;-87
2022/05/23 21:47:13;;;;;;;;;;;;;;;11.28;100.00;98416.97;6163729;23;19920;-88
2022/05/23 21:49:48;;;;;;;;;;;;;;;;;;;;;
2022/05/23 21:52:17;;;;;;;;;;;;;;;11.25;100.00;98425.97;6213932;23;20413;-87
2022/05/23 21:54:45;;;;;;;;;;;;;;;11.16;100.00;98425.72;6213999;23;19958;-87
2022/05/23 21:57:13;;;;;;;;;;;;;;;11.18;100.00;98413.22;6213755;23;19943;-87
2022/05/23 21:59:47;;;;;;;;;;;;;;;11.26;100.00;98418.84;6185673;23;19916;-88
2022/05/23 22:02:23;;;;;;;;;;;;;;;11.21;100.00;98411.19;6213791;23;19944;-87
2022/05/23 22:04:48;;;;;;;;;;;;;;;11.24;100.00;98413.66;6213825;23;19966;-87
2022/05/23 22:07:25;;;;;;;;;;;;;;;11.22;100.00;98418.22;6214209;23;19955;-88
2022/05/23 22:10:14;;;;;;;;;;;;;;;11.09;100.00;98427.94;6213356;23;20240;-87
2022/05/23 22:12:43;;;;;;;;;;;;;;;11.12;100.00;98432.19;6213134;23;20320;-87
2022/05/23 22:15:13;;;;;;;;;;;;;;;11.15;100.00;98427.50;6212289;23;19919;-88
2022/05/23 22:17:38;;;;;;;;;;;;;;;11.13;100.00;98432.06;6213942;23;20283;-87
2022/05/23 22:20:04;;;;;;;;;;;;;;;11.13;100.00;98439.19;6213648;23;19915;-87
2022/05/23 22:22:29;;;;;;;;;;;;;;;11.11;100.00;98441.94;6213639;23;19920;-87
2022/05/23 22:25:05;;;;;;;;;;;;;;;11.11;100.00;98451.72;6214123;23;19947;-87
2022/05/23 22:27:36;;;;;;;;;;;;;;;11.12;100.00;98458.69;6187167;23;19912;-90